createdAt,value
2022-10-28T00:00:32.069Z,21.18
2022-10-28T00:01:32.211Z,21.16
2022-10-28T00:02:32.180Z,21.18
2022-10-28T00:03:32.128Z,21.16
2022-10-28T00:04:32.154Z,21.16
2022-10-28T00:05:32.170Z,21.16
2022-10-28T00:06:32.260Z,21.15
2022-10-28T00:07:32.227Z,21.13
2022-10-28T00:08:32.251Z,21.15
2022-10-28T00:09:32.284Z,21.15
2022-10-28T00:10:32.305Z,21.13
2022-10-28T00:11:32.349Z,21.13
2022-10-28T00:12:32.319Z,21.12
2022-10-28T00:13:32.337Z,21.12
2022-10-28T00:14:32.397Z,21.13
2022-10-28T00:15:32.356Z,21.12
2022-10-28T00:16:32.410Z,21.12
2022-10-28T00:17:32.379Z,21.13
2022-10-28T00:18:32.403Z,21.11
2022-10-28T00:19:32.447Z,21.12
2022-10-28T00:20:32.422Z,21.11
2022-10-28T00:21:32.414Z,21.12
2022-10-28T00:22:32.395Z,21.13
2022-10-28T00:23:32.418Z,21.13
2022-10-28T00:24:32.445Z,21.12
2022-10-28T00:25:32.470Z,21.13
2022-10-28T00:26:32.536Z,21.12
2022-10-28T00:27:32.506Z,21.12
2022-10-28T00:28:32.524Z,21.13
2022-10-28T00:29:32.565Z,21.13
2022-10-28T00:30:32.608Z,21.13
2022-10-28T00:31:32.581Z,21.13
2022-10-28T00:32:32.558Z,21.12
2022-10-28T00:33:32.596Z,21.12
2022-10-28T00:34:32.576Z,21.12
2022-10-28T00:35:32.596Z,21.12
2022-10-28T00:36:32.638Z,21.11
2022-10-28T00:37:32.633Z,21.08
2022-10-28T00:38:32.662Z,21.09
2022-10-28T00:39:32.644Z,21.11
2022-10-28T00:40:32.667Z,21.09
2022-10-28T00:41:32.760Z,21.09
2022-10-28T00:42:32.728Z,21.09
2022-10-28T00:43:32.760Z,21.09
2022-10-28T00:44:32.791Z,21.09
2022-10-28T00:45:32.832Z,21.08
2022-10-28T00:46:32.868Z,21.11
2022-10-28T00:47:32.871Z,21.12
2022-10-28T00:48:32.950Z,21.09
2022-10-28T00:49:32.920Z,21.09
2022-10-28T00:50:32.892Z,21.09
2022-10-28T00:51:32.921Z,21.12
2022-10-28T00:52:32.938Z,21.12
2022-10-28T00:53:32.968Z,21.12
2022-10-28T00:54:32.952Z,21.09
2022-10-28T00:55:32.992Z,21.06
2022-10-28T00:56:33.011Z,21.05
2022-10-28T00:57:33.035Z,21.06
2022-10-28T00:58:33.104Z,21.06
2022-10-28T00:59:33.098Z,21.06
2022-10-28T01:00:33.056Z,21.06
2022-10-28T01:01:33.227Z,21.06
2022-10-28T01:02:33.191Z,21.08
2022-10-28T01:03:33.117Z,21.06
2022-10-28T01:04:33.124Z,21.06
2022-10-28T01:05:33.164Z,21.06
2022-10-28T01:06:33.238Z,21.06
2022-10-28T01:07:33.262Z,21.08
2022-10-28T01:08:33.257Z,21.09
2022-10-28T01:09:33.273Z,21.11
2022-10-28T01:10:33.220Z,21.09
2022-10-28T01:11:33.223Z,21.06
2022-10-28T01:12:33.229Z,21.09
2022-10-28T01:13:33.263Z,21.08
2022-10-28T01:14:33.233Z,21.06
2022-10-28T01:15:33.258Z,21.06
2022-10-28T01:16:33.277Z,21.06
2022-10-28T01:17:33.304Z,21.06
2022-10-28T01:18:33.337Z,21.06
2022-10-28T01:19:33.346Z,21.08
2022-10-28T01:20:36.196Z,21.05
2022-10-28T01:21:33.387Z,21.05
2022-10-28T01:22:33.530Z,21.06
2022-10-28T01:23:33.409Z,21.05
2022-10-28T01:24:33.443Z,21.03
2022-10-28T01:25:33.431Z,21.03
2022-10-28T01:26:33.463Z,21.03
2022-10-28T01:27:33.428Z,21.03
2022-10-28T01:28:33.439Z,21.05
2022-10-28T01:29:33.737Z,21.05
2022-10-28T01:30:33.475Z,21.03
2022-10-28T01:31:33.515Z,21.03
2022-10-28T01:32:33.519Z,21.03
2022-10-28T01:33:33.539Z,21.00
2022-10-28T01:34:33.644Z,20.97
2022-10-28T01:35:33.729Z,21.00
2022-10-28T01:36:33.582Z,21.03
2022-10-28T01:37:33.610Z,21.05
2022-10-28T01:38:33.576Z,21.03
2022-10-28T01:39:33.616Z,21.01
2022-10-28T01:40:33.584Z,21.03
2022-10-28T01:41:33.590Z,21.03
2022-10-28T01:42:33.604Z,21.05
2022-10-28T01:43:33.633Z,21.03
2022-10-28T01:44:33.666Z,21.03
2022-10-28T01:45:33.692Z,21.03
2022-10-28T01:46:33.669Z,21.03
2022-10-28T01:47:33.655Z,21.03
2022-10-28T01:48:33.774Z,21.03
2022-10-28T01:49:33.688Z,21.01
2022-10-28T01:50:33.690Z,21.03
2022-10-28T01:51:33.703Z,21.01
2022-10-28T01:52:33.777Z,21.01
2022-10-28T01:53:33.748Z,21.01
2022-10-28T01:54:33.734Z,21.00
2022-10-28T01:55:33.769Z,21.00
2022-10-28T01:56:33.790Z,21.00
2022-10-28T01:57:33.792Z,21.00
2022-10-28T01:58:33.764Z,21.01
2022-10-28T01:59:33.772Z,21.00
2022-10-28T02:00:33.870Z,20.97
2022-10-28T02:01:34.079Z,20.98
2022-10-28T02:02:33.828Z,20.97
2022-10-28T02:03:33.854Z,20.97
2022-10-28T02:04:33.887Z,20.98
2022-10-28T02:05:33.912Z,20.98
2022-10-28T02:06:33.978Z,20.97
2022-10-28T02:07:33.937Z,20.97
2022-10-28T02:08:33.951Z,20.98
2022-10-28T02:09:33.978Z,20.97
2022-10-28T02:10:33.981Z,20.98
2022-10-28T02:11:33.982Z,20.98
2022-10-28T02:12:33.998Z,21.00
2022-10-28T02:13:34.016Z,20.98
2022-10-28T02:14:34.042Z,20.98
2022-10-28T02:15:34.049Z,20.98
2022-10-28T02:16:34.060Z,20.98
2022-10-28T02:17:34.098Z,20.98
2022-10-28T02:18:34.117Z,20.98
2022-10-28T02:19:34.187Z,20.97
2022-10-28T02:20:34.143Z,20.96
2022-10-28T02:21:34.174Z,20.97
2022-10-28T02:22:34.225Z,20.96
2022-10-28T02:23:34.237Z,20.97
2022-10-28T02:24:34.204Z,20.97
2022-10-28T02:25:34.236Z,20.98
2022-10-28T02:26:34.258Z,20.97
2022-10-28T02:27:34.270Z,20.98
2022-10-28T02:28:34.282Z,20.97
2022-10-28T02:29:34.317Z,20.97
2022-10-28T02:30:34.331Z,20.97
2022-10-28T02:31:34.358Z,20.97
2022-10-28T02:32:34.405Z,20.96
2022-10-28T02:33:34.726Z,20.94
2022-10-28T02:34:34.372Z,20.94
2022-10-28T02:35:34.399Z,20.94
2022-10-28T02:36:34.414Z,20.94
2022-10-28T02:37:34.414Z,20.96
2022-10-28T02:38:34.492Z,20.96
2022-10-28T02:39:34.462Z,20.96
2022-10-28T02:40:34.474Z,20.96
2022-10-28T02:41:34.749Z,20.96
2022-10-28T02:42:34.528Z,20.93
2022-10-28T02:43:34.570Z,20.93
2022-10-28T02:44:34.550Z,20.94
2022-10-28T02:45:34.584Z,20.94
2022-10-28T02:46:34.602Z,20.94
2022-10-28T02:47:34.618Z,20.93
2022-10-28T02:48:34.651Z,20.93
2022-10-28T02:49:34.695Z,20.94
2022-10-28T02:50:34.662Z,20.93
2022-10-28T02:51:34.668Z,20.93
2022-10-28T02:52:34.686Z,20.93
2022-10-28T02:53:34.727Z,20.96
2022-10-28T02:54:34.733Z,20.94
2022-10-28T02:55:34.681Z,20.94
2022-10-28T02:56:34.713Z,20.94
2022-10-28T02:57:34.748Z,20.94
2022-10-28T02:58:34.750Z,20.94
2022-10-28T02:59:34.720Z,20.94
2022-10-28T03:00:34.728Z,20.94
2022-10-28T03:01:34.868Z,20.93
2022-10-28T03:02:34.756Z,20.93
2022-10-28T03:03:34.785Z,20.93
2022-10-28T03:04:34.803Z,20.91
2022-10-28T03:05:34.825Z,20.91
2022-10-28T03:06:34.878Z,20.90
2022-10-28T03:07:34.836Z,20.91
2022-10-28T03:08:34.880Z,20.91
2022-10-28T03:09:34.849Z,20.91
2022-10-28T03:10:34.902Z,20.90
2022-10-28T03:11:34.952Z,20.91
2022-10-28T03:12:34.909Z,20.91
2022-10-28T03:13:34.949Z,20.88
2022-10-28T03:14:34.912Z,20.88
2022-10-28T03:15:34.928Z,20.90
2022-10-28T03:16:34.958Z,20.91
2022-10-28T03:17:34.978Z,20.93
2022-10-28T03:18:35.017Z,20.90
2022-10-28T03:19:34.994Z,20.90
2022-10-28T03:20:35.021Z,20.88
2022-10-28T03:21:35.033Z,20.88
2022-10-28T03:22:35.086Z,20.88
2022-10-28T03:23:35.051Z,20.90
2022-10-28T03:24:35.069Z,20.88
2022-10-28T03:25:35.113Z,20.87
2022-10-28T03:26:35.104Z,20.85
2022-10-28T03:27:35.122Z,20.87
2022-10-28T03:28:35.147Z,20.85
2022-10-28T03:29:35.166Z,20.90
2022-10-28T03:30:35.198Z,20.90
2022-10-28T03:31:35.237Z,20.88
2022-10-28T03:32:35.242Z,20.90
2022-10-28T03:33:35.258Z,20.90
2022-10-28T03:34:35.265Z,20.91
2022-10-28T03:35:35.280Z,20.93
2022-10-28T03:36:35.299Z,20.93
2022-10-28T03:37:35.317Z,20.90
2022-10-28T03:38:35.313Z,20.90
2022-10-28T03:39:35.326Z,20.91
2022-10-28T03:40:35.354Z,20.91
2022-10-28T03:41:35.397Z,20.90
2022-10-28T03:42:37.635Z,20.87
2022-10-28T03:43:35.423Z,20.90
2022-10-28T03:44:35.450Z,20.88
2022-10-28T03:45:35.478Z,20.93
2022-10-28T03:46:36.226Z,20.91
2022-10-28T03:47:35.553Z,20.91
2022-10-28T03:48:35.562Z,20.90
2022-10-28T03:49:35.576Z,20.91
2022-10-28T03:50:35.605Z,20.91
2022-10-28T03:51:35.635Z,20.90
2022-10-28T03:52:35.652Z,20.90
2022-10-28T03:53:35.691Z,20.93
2022-10-28T03:54:35.706Z,20.96
2022-10-28T03:55:35.703Z,20.93
2022-10-28T03:56:35.906Z,20.94
2022-10-28T03:57:35.723Z,20.94
2022-10-28T03:58:40.106Z,20.91
2022-10-28T03:59:35.762Z,20.90
2022-10-28T04:00:35.819Z,20.91
2022-10-28T04:01:35.909Z,20.88
2022-10-28T04:02:35.770Z,20.90
2022-10-28T04:03:35.781Z,20.88
2022-10-28T04:04:35.792Z,20.91
2022-10-28T04:05:35.815Z,20.91
2022-10-28T04:06:35.853Z,20.93
2022-10-28T04:07:35.876Z,20.93
2022-10-28T04:08:35.889Z,20.91
2022-10-28T04:09:35.891Z,20.93
2022-10-28T04:10:35.903Z,20.94
2022-10-28T04:11:35.916Z,20.94
2022-10-28T04:12:35.962Z,20.93
2022-10-28T04:13:35.932Z,20.91
2022-10-28T04:14:35.965Z,20.91
2022-10-28T04:15:35.971Z,20.93
2022-10-28T04:16:35.992Z,20.91
2022-10-28T04:17:35.968Z,20.91
2022-10-28T04:18:36.005Z,20.91
2022-10-28T04:19:36.028Z,20.90
2022-10-28T04:20:36.031Z,20.90
2022-10-28T04:21:36.055Z,20.91
2022-10-28T04:22:36.040Z,20.91
2022-10-28T04:23:36.056Z,20.94
2022-10-28T04:24:36.081Z,20.93
2022-10-28T04:25:36.117Z,20.93
2022-10-28T04:26:36.140Z,20.91
2022-10-28T04:27:36.124Z,20.93
2022-10-28T04:28:36.143Z,20.94
2022-10-28T04:29:36.148Z,20.91
2022-10-28T04:30:36.212Z,20.91
2022-10-28T04:31:36.185Z,20.90
2022-10-28T04:32:36.207Z,20.91
2022-10-28T04:33:36.220Z,20.90
2022-10-28T04:34:36.229Z,20.93
2022-10-28T04:35:36.258Z,20.93
2022-10-28T04:36:36.277Z,20.94
2022-10-28T04:37:36.287Z,20.93
2022-10-28T04:38:36.311Z,20.90
2022-10-28T04:39:36.417Z,20.91
2022-10-28T04:40:36.336Z,20.93
2022-10-28T04:41:36.362Z,20.93
2022-10-28T04:42:36.383Z,20.93
2022-10-28T04:43:36.401Z,20.91
2022-10-28T04:44:36.429Z,20.91
2022-10-28T04:45:36.446Z,20.93
2022-10-28T04:46:36.460Z,20.94
2022-10-28T04:47:36.420Z,20.93
2022-10-28T04:48:36.431Z,20.91
2022-10-28T04:49:38.828Z,20.93
2022-10-28T04:50:36.626Z,20.93
2022-10-28T04:51:36.478Z,20.91
2022-10-28T04:52:36.426Z,20.91
2022-10-28T04:53:36.462Z,20.93
2022-10-28T04:54:36.449Z,20.94
2022-10-28T04:55:36.457Z,20.94
2022-10-28T04:56:36.469Z,20.93
2022-10-28T04:57:36.494Z,20.93
2022-10-28T04:58:36.513Z,20.94
2022-10-28T04:59:36.552Z,20.94
2022-10-28T05:02:02.735Z,20.94
2022-10-28T05:03:02.502Z,20.96
2022-10-28T05:04:02.504Z,20.93
2022-10-28T05:05:02.511Z,20.96
2022-10-28T05:06:02.506Z,20.94
2022-10-28T05:07:02.526Z,20.94
2022-10-28T05:08:02.534Z,20.94
2022-10-28T05:09:02.547Z,20.96
2022-10-28T05:10:02.548Z,20.94
2022-10-28T05:11:02.555Z,20.96
2022-10-28T05:12:02.554Z,20.94
2022-10-28T05:13:02.560Z,20.94
2022-10-28T05:14:02.568Z,20.93
2022-10-28T05:15:02.606Z,20.96
2022-10-28T05:16:02.626Z,20.93
2022-10-28T05:17:02.646Z,20.91
2022-10-28T05:18:02.694Z,20.90
2022-10-28T05:19:02.653Z,20.91
2022-10-28T05:20:02.673Z,20.93
2022-10-28T05:21:02.672Z,20.93
2022-10-28T05:22:02.681Z,20.94
2022-10-28T05:23:02.722Z,20.94
2022-10-28T05:24:02.737Z,20.94
2022-10-28T05:25:02.751Z,20.93
2022-10-28T05:26:02.787Z,20.93
2022-10-28T05:27:02.802Z,20.91
2022-10-28T05:28:02.833Z,20.93
2022-10-28T05:29:02.848Z,20.93
2022-10-28T05:30:02.829Z,20.93
2022-10-28T05:31:02.839Z,20.93
2022-10-28T05:32:02.858Z,20.96
2022-10-28T05:33:02.930Z,20.93
2022-10-28T05:34:02.910Z,20.93
2022-10-28T05:35:02.947Z,20.93
2022-10-28T05:36:02.914Z,20.93
2022-10-28T05:37:02.947Z,20.94
2022-10-28T05:38:02.984Z,20.94
2022-10-28T05:39:03.023Z,20.94
2022-10-28T05:40:03.020Z,20.93
2022-10-28T05:41:03.042Z,20.96
2022-10-28T05:42:03.024Z,20.94
2022-10-28T05:43:03.041Z,20.94
2022-10-28T05:44:03.065Z,20.93
2022-10-28T05:45:03.114Z,20.93
2022-10-28T05:46:03.089Z,20.94
2022-10-28T05:47:03.095Z,20.94
2022-10-28T05:48:03.122Z,20.96
2022-10-28T05:49:03.152Z,20.96
2022-10-28T05:50:03.685Z,20.93
2022-10-28T05:51:03.191Z,20.94
2022-10-28T05:52:03.238Z,20.96
2022-10-28T05:53:03.246Z,20.94
2022-10-28T05:54:03.270Z,20.93
2022-10-28T05:55:03.679Z,20.94
2022-10-28T05:56:03.284Z,20.94
2022-10-28T05:57:03.349Z,20.94
2022-10-28T05:58:03.326Z,20.93
2022-10-28T05:59:03.348Z,20.91
2022-10-28T06:00:03.378Z,20.90
2022-10-28T06:01:03.437Z,20.91
2022-10-28T06:02:03.387Z,20.91
2022-10-28T06:03:03.405Z,20.94
2022-10-28T06:04:03.557Z,20.94
2022-10-28T06:05:03.428Z,20.94
2022-10-28T06:06:03.687Z,20.93
2022-10-28T06:07:03.470Z,20.93
2022-10-28T06:08:03.451Z,20.93
2022-10-28T06:09:03.477Z,20.91
2022-10-28T06:10:03.539Z,20.93
2022-10-28T06:11:01.964Z,20.94
2022-10-28T06:12:02.008Z,20.93
2022-10-28T06:13:02.004Z,20.94
2022-10-28T06:14:02.018Z,20.96
2022-10-28T06:15:01.988Z,21.00
2022-10-28T06:16:02.100Z,20.98
2022-10-28T06:17:02.034Z,21.01
2022-10-28T06:18:02.013Z,21.05
2022-10-28T06:19:02.038Z,21.06
2022-10-28T06:20:02.097Z,21.08
2022-10-28T06:21:02.100Z,21.06
2022-10-28T06:22:02.174Z,21.08
2022-10-28T06:23:02.085Z,21.09
2022-10-28T06:24:02.133Z,21.09
2022-10-28T06:25:02.103Z,21.11
2022-10-28T06:26:02.203Z,21.12
2022-10-28T06:27:02.166Z,21.12
2022-10-28T06:28:04.748Z,21.12
2022-10-28T06:29:02.123Z,21.13
2022-10-28T06:30:02.124Z,21.15
2022-10-28T06:31:02.136Z,21.15
2022-10-28T06:32:02.211Z,21.15
2022-10-28T06:33:02.199Z,21.18
2022-10-28T06:34:02.164Z,21.16
2022-10-28T06:35:02.197Z,21.16
2022-10-28T06:36:02.229Z,21.15
2022-10-28T06:37:02.243Z,21.15
2022-10-28T06:38:04.854Z,21.15
2022-10-28T06:39:02.267Z,21.15
2022-10-28T06:40:02.272Z,21.15
2022-10-28T06:41:02.262Z,21.15
2022-10-28T06:42:02.288Z,21.15
2022-10-28T06:43:02.324Z,21.13
2022-10-28T06:44:02.384Z,21.13
2022-10-28T06:45:02.372Z,21.13
2022-10-28T06:46:02.396Z,21.15
2022-10-28T06:47:03.894Z,21.13
2022-10-28T06:48:03.896Z,21.15
2022-10-28T06:49:03.975Z,21.18
2022-10-28T06:50:03.936Z,21.15
2022-10-28T06:51:04.003Z,21.12
2022-10-28T06:52:04.003Z,21.15
2022-10-28T06:53:04.083Z,21.15
2022-10-28T06:54:04.084Z,21.15
2022-10-28T06:55:04.049Z,21.15
2022-10-28T06:56:04.196Z,21.16
2022-10-28T06:57:04.136Z,21.18
2022-10-28T06:58:04.132Z,21.16
2022-10-28T06:59:04.110Z,21.18
2022-10-28T07:00:04.139Z,21.19
2022-10-28T07:01:04.204Z,21.16
2022-10-28T07:02:04.337Z,21.18
2022-10-28T07:03:04.304Z,21.18
2022-10-28T07:04:04.198Z,21.18
2022-10-28T07:05:04.176Z,21.18
2022-10-28T07:06:04.255Z,21.19
2022-10-28T07:07:04.160Z,21.18
2022-10-28T07:08:04.213Z,21.18
2022-10-28T07:09:04.239Z,21.19
2022-10-28T07:10:04.259Z,21.24
2022-10-28T07:11:04.268Z,21.26
2022-10-28T07:12:05.701Z,21.27
2022-10-28T07:13:04.257Z,21.30
2022-10-28T07:14:04.281Z,21.31
2022-10-28T07:15:04.292Z,21.34
2022-10-28T07:16:04.312Z,21.37
2022-10-28T07:17:04.319Z,21.38
2022-10-28T07:18:04.331Z,21.42
2022-10-28T07:19:04.298Z,21.43
2022-10-28T07:20:04.334Z,21.45
2022-10-28T07:21:04.364Z,21.43
2022-10-28T07:22:04.383Z,21.45
2022-10-28T07:23:04.368Z,21.46
2022-10-28T07:24:04.394Z,21.46
2022-10-28T07:25:04.411Z,21.45
2022-10-28T07:26:04.475Z,21.45
2022-10-28T07:27:04.434Z,21.46
2022-10-28T07:28:04.502Z,21.46
2022-10-28T07:29:04.477Z,21.48
2022-10-28T07:30:04.495Z,21.48
2022-10-28T07:31:04.629Z,21.49
2022-10-28T07:32:04.529Z,21.49
2022-10-28T07:33:04.540Z,21.49
2022-10-28T07:34:04.550Z,21.49
2022-10-28T07:35:04.659Z,21.48
2022-10-28T07:36:04.607Z,21.46
2022-10-28T07:37:04.626Z,21.45
2022-10-28T07:38:04.656Z,21.46
2022-10-28T07:39:04.661Z,21.46
2022-10-28T07:40:04.673Z,21.45
2022-10-28T07:41:04.688Z,21.45
2022-10-28T07:42:04.798Z,21.45
2022-10-28T07:43:04.718Z,21.43
2022-10-28T07:44:04.737Z,21.42
2022-10-28T07:45:04.935Z,21.42
2022-10-28T07:46:04.793Z,21.42
2022-10-28T07:47:04.817Z,21.40
2022-10-28T07:48:04.801Z,21.42
2022-10-28T07:49:04.826Z,21.42
2022-10-28T07:50:04.842Z,21.42
2022-10-28T07:51:04.847Z,21.42
2022-10-28T07:52:04.868Z,21.43
2022-10-28T07:53:05.022Z,21.42
2022-10-28T07:54:04.885Z,21.43
2022-10-28T07:55:04.974Z,21.42
2022-10-28T07:56:04.914Z,21.42
2022-10-28T07:57:04.924Z,21.43
2022-10-28T07:58:04.941Z,21.43
2022-10-28T07:59:05.011Z,21.43
2022-10-28T08:00:04.971Z,21.45
2022-10-28T08:01:05.032Z,21.45
2022-10-28T08:02:05.040Z,21.45
2022-10-28T08:03:04.964Z,21.45
2022-10-28T08:04:04.991Z,21.46
2022-10-28T08:05:05.145Z,21.46
2022-10-28T08:06:04.999Z,21.45
2022-10-28T08:07:05.034Z,21.46
2022-10-28T08:08:05.017Z,21.46
2022-10-28T08:09:05.041Z,21.46
2022-10-28T08:10:05.057Z,21.46
2022-10-28T08:11:05.059Z,21.48
2022-10-28T08:12:05.078Z,21.48
2022-10-28T08:13:05.146Z,21.49
2022-10-28T08:14:05.139Z,21.49
2022-10-28T08:15:05.097Z,21.52
2022-10-28T08:16:05.126Z,21.51
2022-10-28T08:17:05.138Z,21.51
2022-10-28T08:18:05.151Z,21.51
2022-10-28T08:19:07.641Z,21.51
2022-10-28T08:20:05.190Z,21.51
2022-10-28T08:21:05.241Z,21.52
2022-10-28T08:22:05.217Z,21.52
2022-10-28T08:23:06.717Z,21.53
2022-10-28T08:24:05.239Z,21.52
2022-10-28T08:25:05.235Z,21.53
2022-10-28T08:26:05.271Z,21.52
2022-10-28T08:27:05.278Z,21.53
2022-10-28T08:28:05.321Z,21.53
2022-10-28T08:29:05.292Z,21.53
2022-10-28T08:30:05.328Z,21.52
2022-10-28T08:31:09.202Z,21.53
2022-10-28T08:32:05.383Z,21.55
2022-10-28T08:33:05.347Z,21.56
2022-10-28T08:34:05.366Z,21.56
2022-10-28T08:35:05.386Z,21.58
2022-10-28T08:36:05.435Z,21.59
2022-10-28T08:37:05.523Z,21.61
2022-10-28T08:38:05.440Z,21.66
2022-10-28T08:39:05.466Z,21.70
2022-10-28T08:40:05.491Z,21.70
2022-10-28T08:41:05.509Z,21.74
2022-10-28T08:42:05.525Z,21.77
2022-10-28T08:43:05.530Z,21.81
2022-10-28T08:44:05.536Z,21.83
2022-10-28T08:45:05.530Z,21.89
2022-10-28T08:46:05.555Z,21.91
2022-10-28T08:47:05.572Z,21.96
2022-10-28T08:48:05.545Z,21.98
2022-10-28T08:49:05.554Z,22.02
2022-10-28T08:50:05.583Z,22.05
2022-10-28T08:51:05.657Z,22.05
2022-10-28T08:52:05.619Z,22.09
2022-10-28T08:53:05.651Z,22.11
2022-10-28T08:54:05.668Z,22.12
2022-10-28T08:55:05.686Z,22.17
2022-10-28T08:56:05.722Z,22.17
2022-10-28T08:57:05.727Z,22.20
2022-10-28T08:58:05.770Z,22.21
2022-10-28T08:59:05.756Z,22.20
2022-10-28T09:00:05.793Z,22.21
2022-10-28T09:01:05.880Z,22.23
2022-10-28T09:02:05.853Z,22.26
2022-10-28T09:03:05.873Z,22.26
2022-10-28T09:04:05.846Z,22.27
2022-10-28T09:05:05.863Z,22.29
2022-10-28T09:06:05.889Z,22.30
2022-10-28T09:07:05.908Z,22.29
2022-10-28T09:08:05.920Z,22.30
2022-10-28T09:09:05.906Z,22.29
2022-10-28T09:10:05.911Z,22.30
2022-10-28T09:11:05.909Z,22.29
2022-10-28T09:12:05.949Z,22.31
2022-10-28T09:13:06.329Z,22.30
2022-10-28T09:14:06.082Z,22.33
2022-10-28T09:15:06.011Z,22.30
2022-10-28T09:16:05.994Z,22.30
2022-10-28T09:17:06.031Z,22.30
2022-10-28T09:18:06.055Z,22.29
2022-10-28T09:19:06.025Z,22.29
2022-10-28T09:20:06.003Z,22.29
2022-10-28T09:21:06.147Z,22.30
2022-10-28T09:22:06.034Z,22.31
2022-10-28T09:23:06.172Z,22.31
2022-10-28T09:24:06.087Z,22.33
2022-10-28T09:25:06.097Z,22.33
2022-10-28T09:26:06.139Z,22.33
2022-10-28T09:27:06.208Z,22.36
2022-10-28T09:28:06.184Z,22.38
2022-10-28T09:29:09.369Z,22.39
2022-10-28T09:30:06.154Z,22.41
2022-10-28T09:31:06.163Z,22.45
2022-10-28T09:32:06.169Z,22.46
2022-10-28T09:33:06.215Z,22.49
2022-10-28T09:34:06.200Z,22.48
2022-10-28T09:35:06.208Z,22.49
2022-10-28T09:36:06.255Z,22.51
2022-10-28T09:37:06.250Z,22.54
2022-10-28T09:38:06.261Z,22.56
2022-10-28T09:39:06.263Z,22.54
2022-10-28T09:40:06.274Z,22.54
2022-10-28T09:41:06.303Z,22.54
2022-10-28T09:42:06.354Z,22.52
2022-10-28T09:43:06.374Z,22.52
2022-10-28T09:44:06.354Z,22.54
2022-10-28T09:45:06.363Z,22.52
2022-10-28T09:46:06.356Z,22.54
2022-10-28T09:47:06.363Z,22.54
2022-10-28T09:48:06.346Z,22.54
2022-10-28T09:49:06.417Z,22.56
2022-10-28T09:50:06.402Z,22.56
2022-10-28T09:51:06.406Z,22.59
2022-10-28T09:52:06.460Z,22.60
2022-10-28T09:53:06.428Z,22.59
2022-10-28T09:54:06.432Z,22.57
2022-10-28T09:55:06.469Z,22.59
2022-10-28T09:57:06.514Z,22.60
2022-10-28T09:58:06.567Z,22.61
2022-10-28T09:59:06.547Z,22.61
2022-10-28T10:00:06.616Z,22.64
2022-10-28T10:01:06.584Z,22.64
2022-10-28T10:02:06.723Z,22.64
2022-10-28T10:03:06.588Z,22.64
2022-10-28T10:04:06.598Z,22.63
2022-10-28T10:05:06.613Z,22.64
2022-10-28T10:06:06.694Z,22.63
2022-10-28T10:07:06.666Z,22.61
2022-10-28T10:08:06.715Z,22.59
2022-10-28T10:09:06.691Z,22.59
2022-10-28T10:10:06.722Z,22.56
2022-10-28T10:11:06.754Z,22.59
2022-10-28T10:12:06.751Z,22.59
2022-10-28T10:13:06.797Z,22.60
2022-10-28T10:14:06.815Z,22.63
2022-10-28T10:15:06.837Z,22.64
2022-10-28T10:16:06.850Z,22.66
2022-10-28T10:17:06.896Z,22.64
2022-10-28T10:18:06.913Z,22.67
2022-10-28T10:19:06.912Z,22.72
2022-10-28T10:20:07.011Z,22.70
2022-10-28T10:21:06.973Z,22.74
2022-10-28T10:22:07.053Z,22.75
2022-10-28T10:23:07.026Z,22.75
2022-10-28T10:24:07.006Z,22.75
2022-10-28T10:25:07.065Z,22.74
2022-10-28T10:26:09.712Z,22.74
2022-10-28T10:27:07.056Z,22.72
2022-10-28T10:28:07.188Z,22.74
2022-10-28T10:29:07.084Z,22.75
2022-10-28T10:30:07.106Z,22.76
2022-10-28T10:31:07.137Z,22.76
2022-10-28T10:32:07.209Z,22.79
2022-10-28T10:33:07.183Z,22.81
2022-10-28T10:34:07.220Z,22.84
2022-10-28T10:35:07.228Z,22.84
2022-10-28T10:36:07.242Z,22.84
2022-10-28T10:37:07.261Z,22.88
2022-10-28T10:38:07.312Z,22.88
2022-10-28T10:39:07.267Z,22.88
2022-10-28T10:40:07.304Z,22.89
2022-10-28T10:41:07.418Z,22.91
2022-10-28T10:42:07.338Z,22.91
2022-10-28T10:43:13.699Z,22.88
2022-10-28T10:45:07.374Z,22.88
2022-10-28T10:46:07.405Z,22.89
2022-10-28T10:47:07.387Z,22.89
2022-10-28T10:48:07.415Z,22.89
2022-10-28T10:49:07.441Z,22.91
2022-10-28T10:50:07.468Z,22.91
2022-10-28T10:51:07.492Z,22.91
2022-10-28T10:52:07.504Z,22.89
2022-10-28T10:53:07.490Z,22.91
2022-10-28T10:54:07.493Z,22.93
2022-10-28T10:55:07.581Z,22.91
2022-10-28T10:56:07.529Z,22.91
2022-10-28T10:57:07.498Z,22.91
2022-10-28T10:58:07.520Z,22.93
2022-10-28T10:59:07.543Z,22.93
2022-10-28T11:00:07.557Z,22.93
2022-10-28T11:01:07.602Z,22.94
2022-10-28T11:02:07.706Z,22.94
2022-10-28T11:03:07.688Z,22.94
2022-10-28T11:04:07.614Z,22.97
2022-10-28T11:05:07.612Z,23.00
2022-10-28T11:06:24.290Z,23.00
2022-10-28T11:07:07.683Z,23.03
2022-10-28T11:08:07.691Z,23.03
2022-10-28T11:09:07.749Z,23.01
2022-10-28T11:10:07.800Z,23.01
2022-10-28T11:11:07.661Z,23.01
2022-10-28T11:12:07.682Z,23.00
2022-10-28T11:13:07.718Z,22.97
2022-10-28T11:14:07.690Z,22.96
2022-10-28T11:15:07.697Z,22.94
2022-10-28T11:16:07.707Z,22.94
2022-10-28T11:17:07.733Z,22.93
2022-10-28T11:18:07.753Z,22.93
2022-10-28T11:19:07.756Z,22.91
2022-10-28T11:20:07.759Z,22.91
2022-10-28T11:21:07.782Z,22.91
2022-10-28T11:22:07.810Z,22.93
2022-10-28T11:23:07.819Z,22.91
2022-10-28T11:24:07.826Z,22.91
2022-10-28T11:25:07.845Z,22.91
2022-10-28T11:26:07.892Z,22.89
2022-10-28T11:27:07.915Z,22.93
2022-10-28T11:28:07.931Z,22.96
2022-10-28T11:29:07.966Z,22.96
2022-10-28T11:30:07.943Z,22.97
2022-10-28T11:32:07.954Z,22.97
2022-10-28T11:33:28.314Z,22.97
2022-10-28T11:34:08.127Z,22.99
2022-10-28T11:35:07.978Z,22.99
2022-10-28T11:36:07.954Z,23.00
2022-10-28T11:37:07.973Z,23.01
2022-10-28T11:38:07.984Z,23.01
2022-10-28T11:39:08.024Z,23.00
2022-10-28T11:40:08.029Z,23.00
2022-10-28T11:41:08.038Z,23.01
2022-10-28T11:42:08.108Z,23.01
2022-10-28T11:43:08.063Z,23.04
2022-10-28T11:44:08.069Z,23.04
2022-10-28T11:45:08.092Z,23.06
2022-10-28T11:46:08.140Z,23.07
2022-10-28T11:47:08.120Z,23.06
2022-10-28T11:48:08.098Z,23.07
2022-10-28T11:49:08.117Z,23.07
2022-10-28T11:50:08.128Z,23.07
2022-10-28T11:51:08.160Z,23.07
2022-10-28T11:52:08.182Z,23.09
2022-10-28T11:53:08.168Z,23.11
2022-10-28T11:54:08.187Z,23.11
2022-10-28T11:55:08.202Z,23.11
2022-10-28T11:56:08.223Z,23.11
2022-10-28T11:57:08.237Z,23.12
2022-10-28T11:58:08.328Z,23.12
2022-10-28T11:59:08.282Z,23.12
2022-10-28T12:00:08.296Z,23.12
2022-10-28T12:01:08.479Z,23.11
2022-10-28T12:02:08.568Z,23.12
2022-10-28T12:03:08.406Z,23.12
2022-10-28T12:04:08.361Z,23.12
2022-10-28T12:05:08.339Z,23.12
2022-10-28T12:06:08.348Z,23.11
2022-10-28T12:07:08.374Z,23.11
2022-10-28T12:08:08.365Z,23.11
2022-10-28T12:09:08.464Z,23.11
2022-10-28T12:10:08.380Z,23.12
2022-10-28T12:11:08.397Z,23.11
2022-10-28T12:12:08.414Z,23.12
2022-10-28T12:13:08.453Z,23.12
2022-10-28T12:14:08.489Z,23.12
2022-10-28T12:15:08.490Z,23.11
2022-10-28T12:16:08.489Z,23.09
2022-10-28T12:17:08.497Z,23.09
2022-10-28T12:18:08.513Z,23.09
2022-10-28T12:19:08.496Z,23.09
2022-10-28T12:20:08.595Z,23.12
2022-10-28T12:21:08.620Z,23.11
2022-10-28T12:22:08.584Z,23.11
2022-10-28T12:23:08.612Z,23.12
2022-10-28T12:24:08.573Z,23.12
2022-10-28T12:25:08.685Z,23.12
2022-10-28T12:26:08.610Z,23.14
2022-10-28T12:27:11.413Z,23.14
2022-10-28T12:28:08.713Z,23.16
2022-10-28T12:29:08.631Z,23.15
2022-10-28T12:30:08.695Z,23.18
2022-10-28T12:31:08.659Z,23.16
2022-10-28T12:32:08.776Z,23.19
2022-10-28T12:33:08.687Z,23.18
2022-10-28T12:34:08.715Z,23.19
2022-10-28T12:35:08.858Z,23.21
2022-10-28T12:36:08.730Z,23.19
2022-10-28T12:37:08.752Z,23.21
2022-10-28T12:38:08.770Z,23.22
2022-10-28T12:39:08.769Z,23.22
2022-10-28T12:40:08.797Z,23.22
2022-10-28T12:41:08.818Z,23.25
2022-10-28T12:42:08.814Z,23.23
2022-10-28T12:43:08.847Z,23.25
2022-10-28T12:44:08.875Z,23.23
2022-10-28T12:45:08.858Z,23.23
2022-10-28T12:46:08.902Z,23.26
2022-10-28T12:47:08.911Z,23.25
2022-10-28T12:48:08.968Z,23.29
2022-10-28T12:49:08.926Z,23.31
2022-10-28T12:50:08.941Z,23.31
2022-10-28T12:51:08.983Z,23.29
2022-10-28T12:52:08.997Z,23.32
2022-10-28T12:53:09.061Z,23.34
2022-10-28T12:54:09.251Z,23.32
2022-10-28T12:55:09.125Z,23.34
2022-10-28T12:56:09.145Z,23.34
2022-10-28T12:57:09.079Z,23.32